sensor_id;sensor_type;location;lat;lon;timestamp;temperature;humidity
16523;DHT22;19889;52.546;13.348;2023-07-28T00:00:33;19.10;99.90
16523;DHT22;19889;52.546;13.348;2023-07-28T00:03:01;19.10;99.90
16523;DHT22;19889;52.546;13.348;2023-07-28T00:05:28;19.10;99.90
16523;DHT22;19889;52.546;13.348;2023-07-28T00:07:55;19.10;99.90
16523;DHT22;19889;52.546;13.348;2023-07-28T00:10:22;19.10;99.90
16523;DHT22;19889;52.546;13.348;2023-07-28T00:12:51;19.10;99.90
16523;DHT22;19889;52.546;13.348;2023-07-28T00:15:18;19.10;99.90
16523;DHT22;19889;52.546;13.348;2023-07-28T00:17:45;19.10;99.90
16523;DHT22;19889;52.546;13.348;2023-07-28T00:20:12;19.00;99.90
16523;DHT22;19889;52.546;13.348;2023-07-28T00:22:40;19.00;99.90
16523;DHT22;19889;52.546;13.348;2023-07-28T00:25:07;19.00;99.90
16523;DHT22;19889;52.546;13.348;2023-07-28T00:28:16;19.00;99.90
16523;DHT22;19889;52.546;13.348;2023-07-28T00:30:43;19.00;99.90
16523;DHT22;19889;52.546;13.348;2023-07-28T00:33:11;19.10;99.90
16523;DHT22;19889;52.546;13.348;2023-07-28T00:35:38;19.10;99.90
16523;DHT22;19889;52.546;13.348;2023-07-28T00:38:05;19.00;99.90
16523;DHT22;19889;52.546;13.348;2023-07-28T00:40:32;19.00;99.90
16523;DHT22;19889;52.546;13.348;2023-07-28T00:43:00;19.00;99.90
16523;DHT22;19889;52.546;13.348;2023-07-28T00:45:29;19.00;99.90
16523;DHT22;19889;52.546;13.348;2023-07-28T00:47:57;19.00;99.90
16523;DHT22;19889;52.546;13.348;2023-07-28T00:50:25;19.00;99.90
16523;DHT22;19889;52.546;13.348;2023-07-28T00:52:54;19.00;99.90
16523;DHT22;19889;52.546;13.348;2023-07-28T00:55:23;19.10;99.90
16523;DHT22;19889;52.546;13.348;2023-07-28T00:57:50;19.10;99.90
16523;DHT22;19889;52.546;13.348;2023-07-28T01:00:18;19.10;99.90
16523;DHT22;19889;52.546;13.348;2023-07-28T01:02:46;19.10;99.90
16523;DHT22;19889;52.546;13.348;2023-07-28T01:05:13;19.10;99.90
16523;DHT22;19889;52.546;13.348;2023-07-28T01:07:46;19.10;99.90
16523;DHT22;19889;52.546;13.348;2023-07-28T01:10:17;19.10;99.90
16523;DHT22;19889;52.546;13.348;2023-07-28T01:12:44;19.10;99.90
16523;DHT22;19889;52.546;13.348;2023-07-28T01:15:12;19.20;99.90
16523;DHT22;19889;52.546;13.348;2023-07-28T01:17:40;19.20;99.90
16523;DHT22;19889;52.546;13.348;2023-07-28T01:20:10;19.20;99.90
16523;DHT22;19889;52.546;13.348;2023-07-28T01:22:48;19.20;99.90
16523;DHT22;19889;52.546;13.348;2023-07-28T01:25:22;19.20;99.90
16523;DHT22;19889;52.546;13.348;2023-07-28T01:27:56;19.20;99.90
16523;DHT22;19889;52.546;13.348;2023-07-28T01:30:24;19.30;99.90
16523;DHT22;19889;52.546;13.348;2023-07-28T01:32:54;19.30;99.90
16523;DHT22;19889;52.546;13.348;2023-07-28T01:35:21;19.30;99.90
16523;DHT22;19889;52.546;13.348;2023-07-28T01:37:49;19.30;99.90
16523;DHT22;19889;52.546;13.348;2023-07-28T01:40:17;19.30;99.90
16523;DHT22;19889;52.546;13.348;2023-07-28T01:42:44;19.30;99.90
16523;DHT22;19889;52.546;13.348;2023-07-28T01:45:13;19.30;99.90
16523;DHT22;19889;52.546;13.348;2023-07-28T01:47:40;19.30;99.90
16523;DHT22;19889;52.546;13.348;2023-07-28T01:50:07;19.30;99.90
16523;DHT22;19889;52.546;13.348;2023-07-28T01:52:34;19.30;99.90
16523;DHT22;19889;52.546;13.348;2023-07-28T01:55:01;19.20;99.90
16523;DHT22;19889;52.546;13.348;2023-07-28T01:57:32;19.30;99.90
16523;DHT22;19889;52.546;13.348;2023-07-28T02:00:00;19.30;99.90
16523;DHT22;19889;52.546;13.348;2023-07-28T02:02:40;19.30;99.90
16523;DHT22;19889;52.546;13.348;2023-07-28T02:05:08;19.30;99.90
16523;DHT22;19889;52.546;13.348;2023-07-28T02:07:35;19.30;99.90
16523;DHT22;19889;52.546;13.348;2023-07-28T02:10:03;19.30;99.90
16523;DHT22;19889;52.546;13.348;2023-07-28T02:12:30;19.30;99.90
16523;DHT22;19889;52.546;13.348;2023-07-28T02:14:59;19.30;99.90
16523;DHT22;19889;52.546;13.348;2023-07-28T02:17:26;18.70;99.90
16523;DHT22;19889;52.546;13.348;2023-07-28T02:19:55;19.30;99.90
16523;DHT22;19889;52.546;13.348;2023-07-28T02:22:22;19.30;99.90
16523;DHT22;19889;52.546;13.348;2023-07-28T02:25:02;19.30;99.90
16523;DHT22;19889;52.546;13.348;2023-07-28T02:27:51;19.30;99.90
16523;DHT22;19889;52.546;13.348;2023-07-28T02:30:18;19.30;99.90
16523;DHT22;19889;52.546;13.348;2023-07-28T02:32:45;19.30;99.90
16523;DHT22;19889;52.546;13.348;2023-07-28T02:35:14;19.30;99.90
16523;DHT22;19889;52.546;13.348;2023-07-28T02:37:41;19.30;99.90
16523;DHT22;19889;52.546;13.348;2023-07-28T02:40:09;19.30;99.90
16523;DHT22;19889;52.546;13.348;2023-07-28T02:42:35;19.30;99.90
16523;DHT22;19889;52.546;13.348;2023-07-28T02:45:03;19.40;99.90
16523;DHT22;19889;52.546;13.348;2023-07-28T02:47:30;19.40;99.90
16523;DHT22;19889;52.546;13.348;2023-07-28T02:49:58;19.40;99.90
16523;DHT22;19889;52.546;13.348;2023-07-28T02:52:27;19.40;99.90
16523;DHT22;19889;52.546;13.348;2023-07-28T02:54:56;19.40;99.90
16523;DHT22;19889;52.546;13.348;2023-07-28T02:57:23;19.40;99.90
16523;DHT22;19889;52.546;13.348;2023-07-28T02:59:50;19.40;99.90
16523;DHT22;19889;52.546;13.348;2023-07-28T03:02:35;19.40;99.90
16523;DHT22;19889;52.546;13.348;2023-07-28T03:05:02;19.40;99.90
16523;DHT22;19889;52.546;13.348;2023-07-28T03:07:50;19.40;99.90
16523;DHT22;19889;52.546;13.348;2023-07-28T03:10:17;19.40;99.90
16523;DHT22;19889;52.546;13.348;2023-07-28T03:12:45;19.40;99.90
16523;DHT22;19889;52.546;13.348;2023-07-28T03:15:12;19.50;99.90
16523;DHT22;19889;52.546;13.348;2023-07-28T03:17:39;19.50;99.90
16523;DHT22;19889;52.546;13.348;2023-07-28T03:20:07;19.40;99.90
16523;DHT22;19889;52.546;13.348;2023-07-28T03:22:34;19.40;99.90
16523;DHT22;19889;52.546;13.348;2023-07-28T03:25:03;19.40;99.90
16523;DHT22;19889;52.546;13.348;2023-07-28T03:27:31;19.40;99.90
16523;DHT22;19889;52.546;13.348;2023-07-28T03:29:58;19.40;99.90
16523;DHT22;19889;52.546;13.348;2023-07-28T03:32:25;19.00;99.90
16523;DHT22;19889;52.546;13.348;2023-07-28T03:34:52;19.40;99.90
16523;DHT22;19889;52.546;13.348;2023-07-28T03:37:20;19.40;99.90
16523;DHT22;19889;52.546;13.348;2023-07-28T03:39:47;19.40;99.90
16523;DHT22;19889;52.546;13.348;2023-07-28T03:42:16;19.40;99.90
16523;DHT22;19889;52.546;13.348;2023-07-28T03:44:43;19.40;99.90
16523;DHT22;19889;52.546;13.348;2023-07-28T03:47:10;19.40;99.90
16523;DHT22;19889;52.546;13.348;2023-07-28T03:49:38;19.40;99.90
16523;DHT22;19889;52.546;13.348;2023-07-28T03:52:06;19.40;99.90
16523;DHT22;19889;52.546;13.348;2023-07-28T03:54:33;19.40;99.90
16523;DHT22;19889;52.546;13.348;2023-07-28T03:57:01;19.40;99.90
16523;DHT22;19889;52.546;13.348;2023-07-28T03:59:29;19.40;99.90
16523;DHT22;19889;52.546;13.348;2023-07-28T04:01:57;19.40;99.90
16523;DHT22;19889;52.546;13.348;2023-07-28T04:04:25;19.40;99.90
16523;DHT22;19889;52.546;13.348;2023-07-28T04:06:52;19.40;99.90
16523;DHT22;19889;52.546;13.348;2023-07-28T04:09:19;19.40;99.90
16523;DHT22;19889;52.546;13.348;2023-07-28T04:11:46;19.40;99.90
16523;DHT22;19889;52.546;13.348;2023-07-28T04:14:43;19.40;99.90
16523;DHT22;19889;52.546;13.348;2023-07-28T04:17:10;19.40;99.90
16523;DHT22;19889;52.546;13.348;2023-07-28T04:19:38;19.40;99.90
16523;DHT22;19889;52.546;13.348;2023-07-28T04:22:05;19.40;99.90
16523;DHT22;19889;52.546;13.348;2023-07-28T04:24:34;19.40;99.90
16523;DHT22;19889;52.546;13.348;2023-07-28T04:27:01;19.40;99.90
16523;DHT22;19889;52.546;13.348;2023-07-28T04:29:28;19.40;99.90
16523;DHT22;19889;52.546;13.348;2023-07-28T04:31:58;19.40;99.90
16523;DHT22;19889;52.546;13.348;2023-07-28T04:34:33;19.40;99.90
16523;DHT22;19889;52.546;13.348;2023-07-28T04:37:12;19.40;99.90
16523;DHT22;19889;52.546;13.348;2023-07-28T04:39:48;19.40;99.90
16523;DHT22;19889;52.546;13.348;2023-07-28T04:42:16;19.40;99.90
16523;DHT22;19889;52.546;13.348;2023-07-28T04:44:46;19.40;99.90
16523;DHT22;19889;52.546;13.348;2023-07-28T04:47:15;19.40;99.90
16523;DHT22;19889;52.546;13.348;2023-07-28T04:49:42;19.40;99.90
16523;DHT22;19889;52.546;13.348;2023-07-28T04:52:10;19.50;99.90
16523;DHT22;19889;52.546;13.348;2023-07-28T04:55:16;19.40;99.90
16523;DHT22;19889;52.546;13.348;2023-07-28T04:57:44;19.50;99.90
16523;DHT22;19889;52.546;13.348;2023-07-28T05:00:12;19.50;99.90
16523;DHT22;19889;52.546;13.348;2023-07-28T05:02:40;19.50;99.90
16523;DHT22;19889;52.546;13.348;2023-07-28T05:05:08;19.50;99.90
16523;DHT22;19889;52.546;13.348;2023-07-28T05:07:35;19.50;99.90
16523;DHT22;19889;52.546;13.348;2023-07-28T05:10:04;19.50;99.90
16523;DHT22;19889;52.546;13.348;2023-07-28T05:12:31;19.50;99.90
16523;DHT22;19889;52.546;13.348;2023-07-28T05:14:59;19.50;99.90
16523;DHT22;19889;52.546;13.348;2023-07-28T05:17:26;19.50;99.90
16523;DHT22;19889;52.546;13.348;2023-07-28T05:20:15;19.40;99.90
16523;DHT22;19889;52.546;13.348;2023-07-28T05:22:49;19.40;99.90
16523;DHT22;19889;52.546;13.348;2023-07-28T05:25:17;19.50;99.90
16523;DHT22;19889;52.546;13.348;2023-07-28T05:27:44;19.50;99.90
16523;DHT22;19889;52.546;13.348;2023-07-28T05:30:12;19.50;99.90
16523;DHT22;19889;52.546;13.348;2023-07-28T05:32:39;19.50;99.90
16523;DHT22;19889;52.546;13.348;2023-07-28T05:35:22;19.50;99.90
16523;DHT22;19889;52.546;13.348;2023-07-28T05:37:49;19.50;99.90
16523;DHT22;19889;52.546;13.348;2023-07-28T05:40:16;19.50;99.90
16523;DHT22;19889;52.546;13.348;2023-07-28T05:42:43;19.50;99.90
16523;DHT22;19889;52.546;13.348;2023-07-28T05:45:11;19.50;99.90
16523;DHT22;19889;52.546;13.348;2023-07-28T05:47:38;19.50;99.90
16523;DHT22;19889;52.546;13.348;2023-07-28T05:50:06;19.50;99.90
16523;DHT22;19889;52.546;13.348;2023-07-28T05:52:35;19.60;99.90
16523;DHT22;19889;52.546;13.348;2023-07-28T05:55:02;19.60;99.90
16523;DHT22;19889;52.546;13.348;2023-07-28T05:57:29;19.50;99.90
16523;DHT22;19889;52.546;13.348;2023-07-28T05:59:58;19.60;99.90
16523;DHT22;19889;52.546;13.348;2023-07-28T06:02:25;19.60;99.90
16523;DHT22;19889;52.546;13.348;2023-07-28T06:04:55;19.60;99.90
16523;DHT22;19889;52.546;13.348;2023-07-28T06:07:22;19.50;99.90
16523;DHT22;19889;52.546;13.348;2023-07-28T06:09:51;19.60;99.90
16523;DHT22;19889;52.546;13.348;2023-07-28T06:12:18;19.60;99.90
16523;DHT22;19889;52.546;13.348;2023-07-28T06:14:45;19.60;99.90
16523;DHT22;19889;52.546;13.348;2023-07-28T06:17:12;19.60;99.90
16523;DHT22;19889;52.546;13.348;2023-07-28T06:19:40;19.50;99.90
16523;DHT22;19889;52.546;13.348;2023-07-28T06:22:08;19.60;99.90
16523;DHT22;19889;52.546;13.348;2023-07-28T06:24:41;19.60;99.90
16523;DHT22;19889;52.546;13.348;2023-07-28T06:27:10;19.60;99.90
16523;DHT22;19889;52.546;13.348;2023-07-28T06:29:38;19.50;99.90
16523;DHT22;19889;52.546;13.348;2023-07-28T06:32:06;19.60;99.90
16523;DHT22;19889;52.546;13.348;2023-07-28T06:34:34;19.60;99.90
16523;DHT22;19889;52.546;13.348;2023-07-28T06:37:02;19.60;99.90
16523;DHT22;19889;52.546;13.348;2023-07-28T06:39:30;19.60;99.90
16523;DHT22;19889;52.546;13.348;2023-07-28T06:41:57;19.60;99.90
16523;DHT22;19889;52.546;13.348;2023-07-28T06:44:27;19.60;99.90
16523;DHT22;19889;52.546;13.348;2023-07-28T06:46:54;19.60;99.90
16523;DHT22;19889;52.546;13.348;2023-07-28T06:49:21;19.60;99.90
16523;DHT22;19889;52.546;13.348;2023-07-28T06:51:49;19.60;99.90
16523;DHT22;19889;52.546;13.348;2023-07-28T06:54:18;19.60;99.90
16523;DHT22;19889;52.546;13.348;2023-07-28T06:56:45;19.60;99.90
16523;DHT22;19889;52.546;13.348;2023-07-28T06:59:12;19.70;99.90
16523;DHT22;19889;52.546;13.348;2023-07-28T07:01:41;19.70;99.90
16523;DHT22;19889;52.546;13.348;2023-07-28T07:04:08;19.70;99.90
16523;DHT22;19889;52.546;13.348;2023-07-28T07:06:35;19.80;99.90
16523;DHT22;19889;52.546;13.348;2023-07-28T07:09:13;19.80;99.90
16523;DHT22;19889;52.546;13.348;2023-07-28T07:11:43;19.80;99.90
16523;DHT22;19889;52.546;13.348;2023-07-28T07:14:10;19.80;99.90
16523;DHT22;19889;52.546;13.348;2023-07-28T07:16:37;19.90;99.90
16523;DHT22;19889;52.546;13.348;2023-07-28T07:19:06;19.80;99.90
16523;DHT22;19889;52.546;13.348;2023-07-28T07:21:34;19.80;99.90
16523;DHT22;19889;52.546;13.348;2023-07-28T07:24:18;19.90;99.90
16523;DHT22;19889;52.546;13.348;2023-07-28T07:26:46;19.90;99.90
16523;DHT22;19889;52.546;13.348;2023-07-28T07:29:14;19.90;99.90
16523;DHT22;19889;52.546;13.348;2023-07-28T07:31:41;19.90;99.90
16523;DHT22;19889;52.546;13.348;2023-07-28T07:34:10;19.90;99.90
16523;DHT22;19889;52.546;13.348;2023-07-28T07:36:37;19.90;99.90
16523;DHT22;19889;52.546;13.348;2023-07-28T07:39:22;19.90;99.90
16523;DHT22;19889;52.546;13.348;2023-07-28T07:42:09;19.90;99.90
16523;DHT22;19889;52.546;13.348;2023-07-28T07:44:36;19.90;99.90
16523;DHT22;19889;52.546;13.348;2023-07-28T07:47:11;20.00;99.90
16523;DHT22;19889;52.546;13.348;2023-07-28T07:49:41;20.00;99.90
16523;DHT22;19889;52.546;13.348;2023-07-28T07:52:20;20.00;99.90
16523;DHT22;19889;52.546;13.348;2023-07-28T07:54:47;20.10;99.90
16523;DHT22;19889;52.546;13.348;2023-07-28T07:57:15;20.10;99.90
16523;DHT22;19889;52.546;13.348;2023-07-28T07:59:45;20.10;99.90
16523;DHT22;19889;52.546;13.348;2023-07-28T08:02:12;20.10;99.90
16523;DHT22;19889;52.546;13.348;2023-07-28T08:04:40;20.20;99.90
16523;DHT22;19889;52.546;13.348;2023-07-28T08:07:07;20.30;99.90
16523;DHT22;19889;52.546;13.348;2023-07-28T08:09:35;20.30;99.90
16523;DHT22;19889;52.546;13.348;2023-07-28T08:12:03;20.30;99.90
16523;DHT22;19889;52.546;13.348;2023-07-28T08:14:31;20.30;99.90
16523;DHT22;19889;52.546;13.348;2023-07-28T08:16:58;20.30;99.90
16523;DHT22;19889;52.546;13.348;2023-07-28T08:19:25;20.30;99.90
16523;DHT22;19889;52.546;13.348;2023-07-28T08:21:53;20.30;99.90
16523;DHT22;19889;52.546;13.348;2023-07-28T08:24:21;20.30;99.90
16523;DHT22;19889;52.546;13.348;2023-07-28T08:26:48;20.40;99.90
16523;DHT22;19889;52.546;13.348;2023-07-28T08:29:15;20.30;99.90
16523;DHT22;19889;52.546;13.348;2023-07-28T08:31:42;20.30;99.90
16523;DHT22;19889;52.546;13.348;2023-07-28T08:34:09;20.30;99.90
16523;DHT22;19889;52.546;13.348;2023-07-28T08:36:36;20.30;99.90
16523;DHT22;19889;52.546;13.348;2023-07-28T08:39:05;20.30;99.90
16523;DHT22;19889;52.546;13.348;2023-07-28T08:41:32;20.30;99.90
16523;DHT22;19889;52.546;13.348;2023-07-28T08:44:30;20.30;99.90
16523;DHT22;19889;52.546;13.348;2023-07-28T08:46:59;20.40;99.90
16523;DHT22;19889;52.546;13.348;2023-07-28T08:49:26;20.40;99.90
16523;DHT22;19889;52.546;13.348;2023-07-28T08:51:58;20.50;99.90
16523;DHT22;19889;52.546;13.348;2023-07-28T08:54:28;20.50;99.90
16523;DHT22;19889;52.546;13.348;2023-07-28T08:56:55;20.50;99.90
16523;DHT22;19889;52.546;13.348;2023-07-28T08:59:43;20.40;99.90
16523;DHT22;19889;52.546;13.348;2023-07-28T09:02:36;20.50;99.90
16523;DHT22;19889;52.546;13.348;2023-07-28T09:05:03;20.40;99.90
16523;DHT22;19889;52.546;13.348;2023-07-28T09:07:34;20.50;99.90
16523;DHT22;19889;52.546;13.348;2023-07-28T09:10:04;20.40;99.90
16523;DHT22;19889;52.546;13.348;2023-07-28T09:12:31;20.50;99.90
16523;DHT22;19889;52.546;13.348;2023-07-28T09:14:59;20.50;99.90
16523;DHT22;19889;52.546;13.348;2023-07-28T09:17:26;20.50;99.90
16523;DHT22;19889;52.546;13.348;2023-07-28T09:19:54;20.50;99.90
16523;DHT22;19889;52.546;13.348;2023-07-28T09:22:23;20.50;99.90
16523;DHT22;19889;52.546;13.348;2023-07-28T09:24:51;20.50;99.90
16523;DHT22;19889;52.546;13.348;2023-07-28T09:27:24;20.50;99.90
16523;DHT22;19889;52.546;13.348;2023-07-28T09:29:53;20.50;99.90
16523;DHT22;19889;52.546;13.348;2023-07-28T09:32:27;20.50;99.90
16523;DHT22;19889;52.546;13.348;2023-07-28T09:35:07;20.50;99.90
16523;DHT22;19889;52.546;13.348;2023-07-28T09:37:37;20.50;99.90
16523;DHT22;19889;52.546;13.348;2023-07-28T09:40:06;20.60;99.90
16523;DHT22;19889;52.546;13.348;2023-07-28T09:42:38;20.60;99.90
16523;DHT22;19889;52.546;13.348;2023-07-28T09:45:06;20.70;99.90
16523;DHT22;19889;52.546;13.348;2023-07-28T09:47:41;20.70;99.90
16523;DHT22;19889;52.546;13.348;2023-07-28T09:50:11;20.70;99.90
16523;DHT22;19889;52.546;13.348;2023-07-28T09:52:43;20.70;99.90
16523;DHT22;19889;52.546;13.348;2023-07-28T09:55:11;20.70;99.90
16523;DHT22;19889;52.546;13.348;2023-07-28T09:57:45;20.80;99.90
16523;DHT22;19889;52.546;13.348;2023-07-28T10:00:15;20.80;99.90
16523;DHT22;19889;52.546;13.348;2023-07-28T10:02:46;20.90;99.90
16523;DHT22;19889;52.546;13.348;2023-07-28T10:05:20;20.80;99.90
16523;DHT22;19889;52.546;13.348;2023-07-28T10:07:48;20.90;99.90
16523;DHT22;19889;52.546;13.348;2023-07-28T10:10:16;20.90;99.90
16523;DHT22;19889;52.546;13.348;2023-07-28T10:12:48;20.90;99.90
16523;DHT22;19889;52.546;13.348;2023-07-28T10:15:16;20.90;99.90
16523;DHT22;19889;52.546;13.348;2023-07-28T10:17:49;20.90;99.90
16523;DHT22;19889;52.546;13.348;2023-07-28T10:20:29;21.00;99.90
16523;DHT22;19889;52.546;13.348;2023-07-28T10:23:04;20.90;99.90
16523;DHT22;19889;52.546;13.348;2023-07-28T10:25:36;21.00;99.90
16523;DHT22;19889;52.546;13.348;2023-07-28T10:28:06;21.00;99.90
16523;DHT22;19889;52.546;13.348;2023-07-28T10:30:38;20.90;99.90
16523;DHT22;19889;52.546;13.348;2023-07-28T10:33:05;20.90;99.90
16523;DHT22;19889;52.546;13.348;2023-07-28T10:35:47;20.90;99.90
16523;DHT22;19889;52.546;13.348;2023-07-28T10:38:31;20.90;99.90
16523;DHT22;19889;52.546;13.348;2023-07-28T10:41:07;20.90;99.90
16523;DHT22;19889;52.546;13.348;2023-07-28T10:43:37;20.90;99.90
16523;DHT22;19889;52.546;13.348;2023-07-28T10:46:11;21.00;99.90
16523;DHT22;19889;52.546;13.348;2023-07-28T10:48:43;21.00;99.90
16523;DHT22;19889;52.546;13.348;2023-07-28T10:51:10;20.90;99.90
16523;DHT22;19889;52.546;13.348;2023-07-28T10:53:38;21.00;99.90
16523;DHT22;19889;52.546;13.348;2023-07-28T10:56:05;20.90;99.90
16523;DHT22;19889;52.546;13.348;2023-07-28T10:58:37;20.90;99.90
16523;DHT22;19889;52.546;13.348;2023-07-28T11:01:04;20.90;99.90
16523;DHT22;19889;52.546;13.348;2023-07-28T11:03:33;20.90;99.90
16523;DHT22;19889;52.546;13.348;2023-07-28T11:06:00;20.90;99.90
16523;DHT22;19889;52.546;13.348;2023-07-28T11:08:27;20.90;99.90
16523;DHT22;19889;52.546;13.348;2023-07-28T11:10:54;20.90;99.90
16523;DHT22;19889;52.546;13.348;2023-07-28T11:13:22;20.90;99.90
16523;DHT22;19889;52.546;13.348;2023-07-28T11:15:57;20.90;99.90
16523;DHT22;19889;52.546;13.348;2023-07-28T11:18:25;20.90;99.90
16523;DHT22;19889;52.546;13.348;2023-07-28T11:20:53;20.90;99.90
16523;DHT22;19889;52.546;13.348;2023-07-28T11:23:20;20.90;99.90
16523;DHT22;19889;52.546;13.348;2023-07-28T11:25:47;20.90;99.90
16523;DHT22;19889;52.546;13.348;2023-07-28T11:28:14;20.80;99.90
16523;DHT22;19889;52.546;13.348;2023-07-28T11:30:43;20.80;99.90
16523;DHT22;19889;52.546;13.348;2023-07-28T11:33:12;20.80;99.90
16523;DHT22;19889;52.546;13.348;2023-07-28T11:35:40;20.80;99.90
16523;DHT22;19889;52.546;13.348;2023-07-28T11:38:11;20.80;99.90
16523;DHT22;19889;52.546;13.348;2023-07-28T11:40:40;20.70;99.90
16523;DHT22;19889;52.546;13.348;2023-07-28T11:43:08;20.70;99.90
16523;DHT22;19889;52.546;13.348;2023-07-28T11:45:35;20.70;99.90
16523;DHT22;19889;52.546;13.348;2023-07-28T11:48:05;20.70;99.90
16523;DHT22;19889;52.546;13.348;2023-07-28T11:50:37;20.80;99.90
16523;DHT22;19889;52.546;13.348;2023-07-28T11:53:05;20.80;99.90
16523;DHT22;19889;52.546;13.348;2023-07-28T11:55:34;20.90;99.90
16523;DHT22;19889;52.546;13.348;2023-07-28T11:58:03;20.80;99.90
16523;DHT22;19889;52.546;13.348;2023-07-28T12:00:31;20.90;99.90
16523;DHT22;19889;52.546;13.348;2023-07-28T12:03:05;20.90;99.90
16523;DHT22;19889;52.546;13.348;2023-07-28T12:05:38;20.90;99.90
16523;DHT22;19889;52.546;13.348;2023-07-28T12:08:05;20.90;99.90
16523;DHT22;19889;52.546;13.348;2023-07-28T12:10:34;20.90;99.90
16523;DHT22;19889;52.546;13.348;2023-07-28T12:13:05;20.90;99.90
16523;DHT22;19889;52.546;13.348;2023-07-28T12:15:33;20.90;99.90
16523;DHT22;19889;52.546;13.348;2023-07-28T12:18:09;20.90;99.90
16523;DHT22;19889;52.546;13.348;2023-07-28T12:20:40;20.90;99.90
16523;DHT22;19889;52.546;13.348;2023-07-28T12:23:08;20.90;99.90
16523;DHT22;19889;52.546;13.348;2023-07-28T12:25:36;20.90;99.90
16523;DHT22;19889;52.546;13.348;2023-07-28T12:28:03;20.90;99.90
16523;DHT22;19889;52.546;13.348;2023-07-28T12:30:31;20.90;99.90
16523;DHT22;19889;52.546;13.348;2023-07-28T12:32:58;20.90;99.90
16523;DHT22;19889;52.546;13.348;2023-07-28T12:35:26;20.90;99.90
16523;DHT22;19889;52.546;13.348;2023-07-28T12:37:58;20.90;99.90
16523;DHT22;19889;52.546;13.348;2023-07-28T12:40:27;20.90;99.90
16523;DHT22;19889;52.546;13.348;2023-07-28T12:42:55;20.90;99.90
16523;DHT22;19889;52.546;13.348;2023-07-28T12:45:23;20.90;99.90
16523;DHT22;19889;52.546;13.348;2023-07-28T12:47:51;20.90;99.90
16523;DHT22;19889;52.546;13.348;2023-07-28T12:50:20;20.90;99.90
16523;DHT22;19889;52.546;13.348;2023-07-28T12:52:47;20.90;99.90
16523;DHT22;19889;52.546;13.348;2023-07-28T12:55:17;20.90;99.90
16523;DHT22;19889;52.546;13.348;2023-07-28T12:57:44;20.90;99.90
16523;DHT22;19889;52.546;13.348;2023-07-28T13:00:14;21.00;99.90
16523;DHT22;19889;52.546;13.348;2023-07-28T13:02:42;21.00;99.90
16523;DHT22;19889;52.546;13.348;2023-07-28T13:05:11;21.00;99.90
16523;DHT22;19889;52.546;13.348;2023-07-28T13:07:39;21.10;99.90
16523;DHT22;19889;52.546;13.348;2023-07-28T13:10:09;21.10;99.90
16523;DHT22;19889;52.546;13.348;2023-07-28T13:12:38;21.00;99.90
16523;DHT22;19889;52.546;13.348;2023-07-28T13:15:06;21.10;99.90
16523;DHT22;19889;52.546;13.348;2023-07-28T13:17:33;21.10;99.90
16523;DHT22;19889;52.546;13.348;2023-07-28T13:20:00;21.10;99.90
16523;DHT22;19889;52.546;13.348;2023-07-28T13:22:28;21.10;99.90
16523;DHT22;19889;52.546;13.348;2023-07-28T13:24:55;21.20;99.90
16523;DHT22;19889;52.546;13.348;2023-07-28T13:27:22;21.20;99.90
16523;DHT22;19889;52.546;13.348;2023-07-28T13:29:51;21.20;99.90
16523;DHT22;19889;52.546;13.348;2023-07-28T13:32:22;21.20;99.90
16523;DHT22;19889;52.546;13.348;2023-07-28T13:34:50;21.20;99.90
16523;DHT22;19889;52.546;13.348;2023-07-28T13:37:17;21.30;99.90
16523;DHT22;19889;52.546;13.348;2023-07-28T13:39:45;21.30;99.90
16523;DHT22;19889;52.546;13.348;2023-07-28T13:42:13;21.30;99.90
16523;DHT22;19889;52.546;13.348;2023-07-28T13:44:42;21.30;99.90
16523;DHT22;19889;52.546;13.348;2023-07-28T13:47:10;21.40;99.90
16523;DHT22;19889;52.546;13.348;2023-07-28T13:49:38;21.40;99.90
16523;DHT22;19889;52.546;13.348;2023-07-28T13:52:06;21.40;99.90
16523;DHT22;19889;52.546;13.348;2023-07-28T13:54:33;21.40;99.90
16523;DHT22;19889;52.546;13.348;2023-07-28T13:57:00;21.40;99.90
16523;DHT22;19889;52.546;13.348;2023-07-28T13:59:28;21.50;99.90
16523;DHT22;19889;52.546;13.348;2023-07-28T14:01:55;20.20;99.90
16523;DHT22;19889;52.546;13.348;2023-07-28T14:04:25;21.40;99.90
16523;DHT22;19889;52.546;13.348;2023-07-28T14:06:52;21.50;99.90
16523;DHT22;19889;52.546;13.348;2023-07-28T14:09:19;21.50;99.90
16523;DHT22;19889;52.546;13.348;2023-07-28T14:11:46;21.50;99.90
16523;DHT22;19889;52.546;13.348;2023-07-28T14:14:13;21.50;99.90
16523;DHT22;19889;52.546;13.348;2023-07-28T14:16:41;21.50;99.90
16523;DHT22;19889;52.546;13.348;2023-07-28T14:19:08;21.50;99.90
16523;DHT22;19889;52.546;13.348;2023-07-28T14:21:37;21.60;99.90
16523;DHT22;19889;52.546;13.348;2023-07-28T14:24:05;21.60;99.90
16523;DHT22;19889;52.546;13.348;2023-07-28T14:26:32;21.60;99.90
16523;DHT22;19889;52.546;13.348;2023-07-28T14:28:59;21.60;99.90
16523;DHT22;19889;52.546;13.348;2023-07-28T14:31:26;21.60;99.90
16523;DHT22;19889;52.546;13.348;2023-07-28T14:34:01;21.60;99.90
16523;DHT22;19889;52.546;13.348;2023-07-28T14:36:28;21.60;99.90
16523;DHT22;19889;52.546;13.348;2023-07-28T14:38:58;21.60;99.90
16523;DHT22;19889;52.546;13.348;2023-07-28T14:41:29;21.60;99.90
16523;DHT22;19889;52.546;13.348;2023-07-28T14:44:28;21.60;99.90
16523;DHT22;19889;52.546;13.348;2023-07-28T14:46:55;21.70;99.90
16523;DHT22;19889;52.546;13.348;2023-07-28T14:49:22;21.70;99.90
16523;DHT22;19889;52.546;13.348;2023-07-28T14:51:53;21.70;99.90
16523;DHT22;19889;52.546;13.348;2023-07-28T14:54:20;23.30;99.90
16523;DHT22;19889;52.546;13.348;2023-07-28T14:56:48;21.70;99.90
16523;DHT22;19889;52.546;13.348;2023-07-28T14:59:15;22.80;99.90
16523;DHT22;19889;52.546;13.348;2023-07-28T15:01:45;21.70;99.90
16523;DHT22;19889;52.546;13.348;2023-07-28T15:04:13;21.70;99.90
16523;DHT22;19889;52.546;13.348;2023-07-28T15:06:41;21.70;99.90
16523;DHT22;19889;52.546;13.348;2023-07-28T15:09:08;21.70;99.90
16523;DHT22;19889;52.546;13.348;2023-07-28T15:11:35;21.70;99.90
16523;DHT22;19889;52.546;13.348;2023-07-28T15:14:02;21.70;99.90
16523;DHT22;19889;52.546;13.348;2023-07-28T15:16:30;21.70;99.90
16523;DHT22;19889;52.546;13.348;2023-07-28T15:18:59;21.70;99.90
16523;DHT22;19889;52.546;13.348;2023-07-28T15:21:26;21.70;99.90
16523;DHT22;19889;52.546;13.348;2023-07-28T15:24:08;21.80;99.90
16523;DHT22;19889;52.546;13.348;2023-07-28T15:26:35;21.80;99.90
16523;DHT22;19889;52.546;13.348;2023-07-28T15:29:03;21.80;99.90